Sonic Adventure (DX): Overall Rankings

Records: Times | Rings | Scores | Races | Bosses | Freestyle
Leaders: Times | Rings | Scores | Races | Bosses | Freestyle | Overall
Rank Player Percent Points Order Asc Date
1 Sonicspeedruner 98.0% 342 05-21-18
2 Gamepro011 97.9% 355 05-21-18
3 DarkPolarNight 96.7% 570 05-21-18
4 Jawzun 93.1% 1191 05-21-18
5 Dashjump 91.6% 1458 05-21-18
6 DarkspinesSonic 89.8% 1776 05-21-18
7 Avento128bits 89.6% 1812 05-21-18
8 ike6252 89.4% 1845 05-21-18
9 F-Man 87.6% 2161 05-21-18
10 Coolfansonic 87.1% 2247 05-21-18
11 HyperSonic7701 84.3% 2742 05-21-18
12 TheRealShadnic 83.9% 2797 05-21-18
13 yoshifan 82.6% 3039 05-21-18
14 frankoredstrato 82.2% 3106 05-21-18
15 francisco 81.2% 3275 05-21-18
16 Marth 81.0% 3306 05-21-18
17 InferSaime 79.8% 3526 05-21-18
18 PfoSonic 79.3% 3606 05-21-18
19 Paragod 78.9% 3679 05-21-18
20 THC98 78.0% 3833 05-21-18
21 Stefan 75.6% 4249 05-21-18
22 RPGnutter 73.5% 4619 05-21-18
23 bertin 73.4% 4639 05-21-18
24 sonicam 71.3% 5012 05-21-18
25 drminus 69.9% 5241 05-21-18
26 xXMegaManXx 69.9% 5257 05-21-18
27 Dekuboy 67.1% 5741 05-21-18
28 chainchumper 65.8% 5967 05-21-18
29 Combo 65.4% 6043 05-21-18
30 chaos shadow 64.8% 6144 05-21-18
31 SkyLights 64.2% 6241 05-21-18
32 Diamond 62.2% 6600 05-21-18
33 Auriman1 60.0% 6971 05-21-18
34 GerbilSoft 60.0% 6974 05-21-18
35 OmegaDJ 60.0% 6979 05-21-18
36 magnum12 59.2% 7121 05-21-18
37 Thorn 57.0% 7506 05-21-18
38 P1 Pause 56.8% 7533 05-21-18
39 mike89 55.8% 7711 05-21-18
40 Dave Cramer 53.8% 8053 05-21-18
41 Groudon199 53.8% 8060 05-21-18
42 Parax 53.1% 8180 05-21-18
43 Shadow Jacky 52.7% 8257 05-21-18
44 Psymar 47.7% 9120 05-21-18
45 Arch 46.8% 9278 05-21-18
46 Chao_Fan 45.9% 9445 05-21-18
47 mauserman 45.1% 9587 05-21-18
48 Quartz 44.8% 9625 05-21-18
49 teamblackarms 44.0% 9768 05-21-18
50 Calfd 43.4% 9872 05-21-18
51 Psyknux 43.2% 9906 05-21-18
52 James_Bertolli 43.0% 9942 05-21-18
53 NintenDan 42.6% 10017 05-21-18
54 Webber3000 42.1% 10109 05-21-18
55 Turbos 41.9% 10133 05-21-18
56 Ring Rush 41.7% 10175 05-21-18
57 Cream147 41.5% 10208 05-21-18
58 videogamemaster777 41.4% 10228 05-21-18
59 Fr3nZy 41.3% 10245 05-21-18
60 Siavash Tazari 41.2% 10264 05-21-18
61 buddychaos0415 40.6% 10366 05-21-18
62 SadisticMystic 40.1% 10447 05-21-18
63 ethmar 39.7% 10519 05-21-18
64 eggFL 39.3% 10591 05-21-18
65 SB737 37.7% 10868 05-21-18
66 supersonic465 37.3% 10946 05-21-18
67 supersonicfan 36.6% 11057 05-21-18
68 FuzZerd 35.5% 11264 05-21-18
69 Aitamen 35.0% 11348 05-21-18
70 elecmouse101 34.6% 11414 05-21-18
71 BigAL49 34.6% 11415 05-21-18
72 danieldude 34.4% 11443 05-21-18
73 Austinf 33.6% 11591 05-21-18
74 metanightmare22 33.3% 11636 05-21-18
75 Cyan Ryan 33.2% 11658 05-21-18
76 dabestgamer 32.9% 11713 05-21-18
77 MiStEr_ShAoLiN 32.8% 11721 05-21-18
78 Andrea Ritsu 32.1% 11854 05-21-18
79 itsPersonnal 31.7% 11924 05-21-18
80 Cybrax 31.0% 12036 05-21-18
81 JamminX42 30.9% 12062 05-21-18
82 SilvertheAlmighty 30.7% 12092 05-21-18
83 Nim 30.6% 12115 05-21-18
84 VMU Player Banned 29.0% 12400 05-21-18
85 Staf 28.5% 12483 05-21-18
86 Omega Rafael Santos 28.4% 12491 05-21-18
87 The T 28.1% 12556 05-21-18
88 EngiNerd 27.8% 12595 05-21-18
89 lordmetalsonic 27.4% 12680 05-21-18
90 Hipertails12 26.9% 12762 05-21-18
91 welldooder64 26.8% 12775 05-21-18
92 GreatStar 26.6% 12819 05-21-18
93 The Great Lord Mick 26.4% 12843 05-21-18
94 Sondow 26.3% 12858 05-21-18
95 Mastakirby 26.3% 12866 05-21-18
96 LinksDarkArrows 26.1% 12901 05-21-18
97 Skylace 25.2% 13057 05-21-18
98 a_moustache 24.2% 13237 05-21-18
99 Rolken 23.7% 13320 05-21-18
100 Niczur 23.2% 13399 05-21-18
101 Spinballwizard 22.0% 13613 05-21-18
101 Xia 22.0% 13613 05-21-18
103 Kogen Player Banned 22.0% 13617 05-21-18
104 Twilisailor 21.6% 13691 05-21-18
105 f0rever_zer0 21.5% 13707 05-21-18
106 Cutiefox 21.3% 13734 05-21-18
106 Don 21.3% 13734 05-21-18
108 Game_Complete 21.2% 13751 05-21-18
109 Miles9999 21.1% 13770 05-21-18
110 andres430 20.7% 13848 05-21-18
111 Cruizer 20.4% 13887 05-21-18
112 iSonicKid2K 20.3% 13911 05-21-18
113 SADXTryHard 20.1% 13946 05-21-18
114 GarnetPrincess 19.6% 14032 05-21-18
115 N 19.3% 14088 05-21-18
116 AxlThunder 19.0% 14137 05-21-18
117 knuckles_sonic8 18.5% 14227 05-21-18
118 KinkyCadence 18.2% 14277 05-21-18
119 The Knuckles Chao 18.2% 14278 05-21-18
120 Team_Yoshi 17.8% 14342 05-21-18
121 Termon 17.8% 14344 05-21-18
122 LittleBigness 17.8% 14357 05-21-18
123 SonicWinDX 17.6% 14379 05-21-18
124 FoxBoy 17.5% 14396 05-21-18
125 Drakodan 16.8% 14515 05-21-18
126 Sonic Singularity 15.9% 14685 05-21-18
127 Pokemonmaster888 15.6% 14741 05-21-18
128 paulie9990 15.2% 14803 05-21-18
129 SilverSonic 14.6% 14912 05-21-18
130 MPit08 14.4% 14935 05-21-18
131 WeegeeZV 14.2% 14977 05-21-18
132 koinu93 14.1% 14999 05-21-18
133 Mo Player Banned 14.1% 15003 05-21-18
134 HyperSonic64 13.6% 15082 05-21-18
135 Cod4Scopes 13.6% 15083 05-21-18
136 booo95 13.4% 15109 05-21-18
137 Chawkk 13.3% 15127 05-21-18
137 Jerzia 13.3% 15127 05-21-18
139 Hunters13 13.1% 15174 05-21-18
140 SuperSonic101 13.1% 15176 05-21-18
141 Maxinfamily 13.0% 15194 05-21-18
142 Kanimayo_Jp 12.6% 15259 05-21-18
143 LilZero 12.6% 15260 05-21-18
144 BrokenArthritis 12.5% 15282 05-21-18
145 PsyBorg 12.4% 15298 05-21-18
146 Flying Fox 12.3% 15305 05-21-18
147 Therio 12.0% 15359 05-21-18
148 sonicspeed 11.8% 15388 05-21-18
149 douglas 11.8% 15402 05-21-18
150 Matt_TY 11.4% 15466 05-21-18
151 thewaytodawnnn 11.4% 15472 05-21-18
152 ModifiedMonkee 11.2% 15503 05-21-18
153 Cooljay 10.8% 15566 05-21-18
154 SuperBlitzCraig 10.7% 15587 05-21-18
155 joecoolgames 10.6% 15599 05-21-18
156 SeaWolf 10.6% 15603 05-21-18
157 videogamer1014 10.5% 15631 05-21-18
158 AC-Tygo 10.2% 15676 05-21-18
159 welshmoose05 10.2% 15684 05-21-18
160 OddCook 9.9% 15721 05-21-18
161 crazy1993 9.9% 15728 05-21-18
162 TFEC Headshot 9.8% 15743 05-21-18
163 Mcshuggets 9.7% 15767 05-21-18
164 niscool 9.4% 15813 05-21-18
165 Mariobutch 9.3% 15831 05-21-18
166 nuckrieg 9.3% 15841 05-21-18
166 Irregular Zero 9.3% 15841 05-21-18
168 SonicAD 9.2% 15859 05-21-18
169 Shadowthegreat 9.0% 15885 05-21-18
170 superjupi 9.0% 15887 05-21-18
171 SirTobbii 9.0% 15892 05-21-18
172 sonamyfan666 8.7% 15936 05-21-18
173 iarebored 8.6% 15949 05-21-18
174 Powerjohn25 8.6% 15952 05-21-18
175 SaviourDC 8.6% 15958 05-21-18
176 SonicKnuckles 8.6% 15961 05-21-18
177 Werey 8.2% 16022 05-21-18
178 adf 8.2% 16025 05-21-18
179 Megaman EXE565 8.0% 16067 05-21-18
180 ArcticDragon 7.6% 16134 05-21-18
181 Platformer 7.6% 16136 05-21-18
182 timpkmn89 7.5% 16153 05-21-18
183 wheatrich 7.4% 16168 05-21-18
184 Swift Hobo 7.3% 16181 05-21-18
185 FocusSight64 7.3% 16183 05-21-18
186 Rickyman48 7.1% 16217 05-21-18
187 KitsuneYamaro 7.0% 16231 05-21-18
188 Triseena 6.9% 16258 05-21-18
189 Destroyer121121 6.6% 16311 05-21-18
190 dShadow 6.6% 16312 05-21-18
191 Starlight Sable 6.5% 16323 05-21-18
192 CyberShadow 6.5% 16328 05-21-18
193 slade23 6.4% 16332 05-21-18
194 IsisDazs 6.3% 16358 05-21-18
195 BlankTH 6.1% 16392 05-21-18
196 Monkeh 6.1% 16400 05-21-18
197 Redd 6.0% 16418 05-21-18
198 Badlex727 5.9% 16422 05-21-18
199 SonicU260 5.9% 16432 05-21-18
200 Richied 5.8% 16449 05-21-18
201 DaDude 5.7% 16468 05-21-18
201 Swinkly 5.7% 16468 05-21-18
203 Crispian 5.6% 16471 05-21-18
204 Vicklaw 5.6% 16482 05-21-18
205 sonicd5 5.6% 16484 05-21-18
206 Zip 5.5% 16488 05-21-18
207 VeritasDL 5.2% 16549 05-21-18
208 ALundstrom10 5.2% 16553 05-21-18
209 tal39h 5.1% 16558 05-21-18
210 Kirbymon30 5.1% 16575 05-21-18
211 soniccoloursunleashed 5.0% 16589 05-21-18
212 Drflash55 4.9% 16600 05-21-18
213 Bass 4.9% 16608 05-21-18
214 neaolas 4.7% 16630 05-21-18
215 superiorsonic 4.7% 16636 05-21-18
216 zapp 4.7% 16645 05-21-18
217 Yish 4.6% 16648 05-21-18
218 UninspiredUsername 4.6% 16655 05-21-18
219 Sonicsuperstar1 4.5% 16668 05-21-18
220 gamefreak1292 4.5% 16677 05-21-18
221 Sora_yx 4.3% 16706 05-21-18
222 Chaos_Overlord 4.1% 16733 05-21-18
223 TakaRikka 4.0% 16754 05-21-18
224 Valfore 4.0% 16758 05-21-18
225 Dage4Aquatic 3.9% 16781 05-21-18
226 ShinigamiMachine 3.8% 16795 05-21-18
227 Regano1000 3.8% 16802 05-21-18
228 MK 3.7% 16815 05-21-18
229 Ace747 3.6% 16835 05-21-18
230 Jua Rever 3.4% 16858 05-21-18
231 Illidan 3.2% 16907 05-21-18
232 HHNNBBHHN 3.1% 16912 05-21-18
233 Venick409 3.1% 16914 05-21-18
234 Brian_pso 3.1% 16915 05-21-18
235 Sithwarrior26 3.1% 16916 05-21-18
236 nman36 3.1% 16918 05-21-18
237 Egor305 3.0% 16939 05-21-18
237 SkyBon 3.0% 16939 05-21-18
239 ingx24 2.9% 16945 05-21-18
240 TheChaosEmeraIds 2.9% 16950 05-21-18
241 dekki1234 2.9% 16955 05-21-18
242 Nickson98 2.9% 16957 05-21-18
243 Fozer 2.8% 16971 05-21-18
244 Colomb_30 2.8% 16974 05-21-18
244 FSSRandomvids 2.8% 16974 05-21-18
246 Aiko 2.7% 16986 05-21-18
247 sonic29887 2.7% 16990 05-21-18
248 TheUltraBlur 2.6% 16999 05-21-18
249 1stKirbyever 2.6% 17003 05-21-18
250 TimTH 2.5% 17019 05-21-18
251 Th4tN1nj4Turtl3 2.4% 17040 05-21-18
252 Cort_pso 2.3% 17051 05-21-18
253 ieatatsonic 2.3% 17057 05-21-18
254 Mariosonic15 2.2% 17065 05-21-18
255 Doom-9 2.2% 17067 05-21-18
256 Artie 2.2% 17078 05-21-18
257 MStitomix 2.2% 17081 05-21-18
258 HermitHelmet 2.1% 17085 05-21-18
259 Got4n 2.0% 17106 05-21-18
259 SuperSonic71087 2.0% 17106 05-21-18
261 Jose_15 2.0% 17116 05-21-18
262 Questionguy555 1.9% 17119 05-21-18
263 djmat 1.9% 17132 05-21-18
264 SuperSonicfan9595 1.8% 17137 05-21-18
265 sonicandamy Player Banned 1.7% 17154 05-21-18
266 Heroes_Hater 1.7% 17156 05-21-18
267 Paixii 1.7% 17164 05-21-18
268 LancexExWx 1.7% 17165 05-21-18
269 son1cgu1tar 1.7% 17169 05-21-18
270 Mankster101 1.6% 17182 05-21-18
271 BallzeH 1.6% 17183 05-21-18
272 BecauseWarAnvil 1.5% 17189 05-21-18
273 Jamixesa 1.5% 17194 05-21-18
274 SpiritDragon1995 1.5% 17201 05-21-18
275 Shanekilz 1.5% 17204 05-21-18
276 Crydio 1.4% 17205 05-21-18
277 MarewBFN 1.3% 17222 05-21-18
278 stanski 1.3% 17224 05-21-18
279 Sonique Hedgehog 1.3% 17228 05-21-18
280 Blue Infamy 1.2% 17240 05-21-18
281 p0ker 1.2% 17241 05-21-18
282 ArthurVGCP 1.2% 17245 05-21-18
283 ErrortheCucco 1.2% 17251 05-21-18
284 Rikum22 1.2% 17254 05-21-18
285 Arthas 1.1% 17258 05-21-18
286 sonic1001 1.1% 17262 05-21-18
287 syco1098 1.1% 17269 05-21-18
288 WingedInsignia 1.1% 17270 05-21-18
289 AJSIV 1.1% 17271 05-21-18
290 Sonic the Hedgehod16 1.0% 17274 05-21-18
291 ASINISTERTACO 1.0% 17280 05-21-18
292 sonicfan9 1.0% 17286 05-21-18
293 BlackArmsShadow 0.9% 17294 05-21-18
294 themachoman202 0.9% 17295 05-21-18
295 darkstarblaze 0.9% 17299 05-21-18
296 shadowblast63 Player Banned 0.9% 17303 05-21-18
297 Fivavoa 0.9% 17305 05-21-18
298 MastaToken 0.9% 17306 05-21-18
298 Greham Adelphis 0.9% 17306 05-21-18
300 Mr. Jones 0.9% 17307 05-21-18
301 Ben1502 0.8% 17309 05-21-18
302 arcfx1985 0.8% 17310 05-21-18
303 TommyeAsY 0.8% 17312 05-21-18
304 ptorflaxendrosis 0.8% 17313 05-21-18
305 Gvozdevik 0.8% 17318 05-21-18
305 FlandreScarlet9999vr 0.8% 17318 05-21-18
307 Knuckles 0.8% 17319 05-21-18
308 Zeldocto 0.8% 17320 05-21-18
309 KaM Mark MaK 0.8% 17324 05-21-18
309 BeeAwwb 0.8% 17324 05-21-18
311 ShadouZaHejjihoggu 0.7% 17331 05-21-18
312 Sarger001 0.7% 17336 05-21-18
313 Sonic The Star 0.7% 17339 05-21-18
314 darkersupershadic 0.7% 17340 05-21-18
314 Sonic62 0.7% 17340 05-21-18
314 dragondragon18 0.7% 17340 05-21-18
317 Sogeking 0.7% 17343 05-21-18
318 Shadygamerfreak 0.6% 17347 05-21-18
319 Grady219 0.6% 17348 05-21-18
319 SonicK100 0.6% 17348 05-21-18
321 BioShadow 0.6% 17349 05-21-18
322 Jawaah 0.6% 17355 05-21-18
323 Antek 0.6% 17357 05-21-18
324 Klaus 0.6% 17359 05-21-18
324 SilverK 0.6% 17359 05-21-18
326 SpinDashMaster 0.5% 17364 05-21-18
327 Videogamer123 0.5% 17370 05-21-18
328 oTaiIilLsS 0.4% 17384 05-21-18
329 isaihtb11 0.4% 17385 05-21-18
330 zaktu40 0.4% 17387 05-21-18
331 OhNoes! 0.4% 17388 05-21-18
332 gaara1234 0.4% 17390 05-21-18
333 Mad Andy 0.4% 17391 05-21-18
334 S-MS32X-S 0.4% 17392 05-21-18
335 gamed00d 0.4% 17393 05-21-18
336 Mister_Slick 0.3% 17404 05-21-18
337 Rush Hero 0.3% 17407 05-21-18
337 Sonic06Fan 0.3% 17407 05-21-18
339 ChaosNexuss 0.3% 17408 05-21-18
340 SonicMega167 0.3% 17413 05-21-18
341 Iwannabelink 0.2% 17414 05-21-18
342 sonknuck23 0.2% 17418 05-21-18
343 gamer1245 0.2% 17426 05-21-18
344 DanielTheFalcon 0.2% 17428 05-21-18
345 Burningskull123 0.1% 17432 05-21-18
346 Sonicontherun 0.1% 17443 05-21-18
347 Lil_Dude 0.1% 17448 05-21-18
348 antiwwe 0.0% 17449 05-21-18
349 Tyrouble 0.0% 17451 05-21-18
350 Genuine Hedgehog 0.0% 17452 05-21-18
350 SonataSpinDash 0.0% 17452 05-21-18
352 Cbwade15 0.0% 17455 05-21-18
353 neji_hyuuga 0.0% 17466 05-21-18
353 MegabombBlade 0.0% 17466 05-21-18
353 Over 0.0% 17466 05-21-18
353 sdj6707 Player Banned 0.0% 17466 05-21-18
353 Tran Sonic Fan Player Banned 0.0% 17466 05-21-18

This page is using the New Data Table System. [FUTURE]

Game ID: 3 | Category ID: 10
Hits: 72,550 | Hits This Month: 160 | DB Calls: 21 | Mem Usage: 5.48 MB | Time: 0.23s | Printable

The Sonic Center v3.9
Copyright 2003-2011 by The Sonic Center Team.